sensor_id;sensor_type;location;lat;lon;timestamp;P1;durP1;ratioP1;P2;durP2;ratioP2
38937;SDS011;24727;51.974;20.868;2023-04-24T00:00:37;9.95;;;7.15;;
38937;SDS011;24727;51.974;20.868;2023-04-24T00:03:06;11.95;;;8.25;;
38937;SDS011;24727;51.974;20.868;2023-04-24T00:05:34;13.77;;;8.23;;
38937;SDS011;24727;51.974;20.868;2023-04-24T00:08:08;14.07;;;8.65;;
38937;SDS011;24727;51.974;20.868;2023-04-24T00:10:34;11.18;;;7.25;;
38937;SDS011;24727;51.974;20.868;2023-04-24T00:13:02;14.60;;;9.35;;
38937;SDS011;24727;51.974;20.868;2023-04-24T00:15:34;13.65;;;8.88;;
38937;SDS011;24727;51.974;20.868;2023-04-24T00:18:01;13.02;;;7.88;;
38937;SDS011;24727;51.974;20.868;2023-04-24T00:20:28;13.07;;;7.78;;
38937;SDS011;24727;51.974;20.868;2023-04-24T00:22:54;13.80;;;8.15;;
38937;SDS011;24727;51.974;20.868;2023-04-24T00:25:21;12.70;;;7.75;;
38937;SDS011;24727;51.974;20.868;2023-04-24T00:27:47;10.00;;;7.50;;
38937;SDS011;24727;51.974;20.868;2023-04-24T00:30:13;13.38;;;8.68;;
38937;SDS011;24727;51.974;20.868;2023-04-24T00:32:45;11.68;;;8.15;;
38937;SDS011;24727;51.974;20.868;2023-04-24T00:37:40;15.45;;;8.45;;
38937;SDS011;24727;51.974;20.868;2023-04-24T00:40:08;10.98;;;8.45;;
38937;SDS011;24727;51.974;20.868;2023-04-24T00:42:34;13.48;;;8.20;;
38937;SDS011;24727;51.974;20.868;2023-04-24T00:45:00;16.17;;;8.90;;
38937;SDS011;24727;51.974;20.868;2023-04-24T00:47:28;14.00;;;8.88;;
38937;SDS011;24727;51.974;20.868;2023-04-24T00:49:55;12.55;;;8.20;;
38937;SDS011;24727;51.974;20.868;2023-04-24T00:52:21;17.42;;;9.20;;
38937;SDS011;24727;51.974;20.868;2023-04-24T00:54:49;13.50;;;10.10;;
38937;SDS011;24727;51.974;20.868;2023-04-24T00:57:16;11.45;;;7.97;;
38937;SDS011;24727;51.974;20.868;2023-04-24T00:59:43;13.32;;;9.30;;
38937;SDS011;24727;51.974;20.868;2023-04-24T01:02:11;14.23;;;9.18;;
38937;SDS011;24727;51.974;20.868;2023-04-24T01:04:38;14.52;;;9.55;;
38937;SDS011;24727;51.974;20.868;2023-04-24T01:07:04;13.90;;;9.43;;
38937;SDS011;24727;51.974;20.868;2023-04-24T01:09:38;17.55;;;10.38;;
38937;SDS011;24727;51.974;20.868;2023-04-24T01:12:08;16.05;;;10.40;;
38937;SDS011;24727;51.974;20.868;2023-04-24T01:14:35;13.27;;;9.18;;
38937;SDS011;24727;51.974;20.868;2023-04-24T01:17:02;13.13;;;9.82;;
38937;SDS011;24727;51.974;20.868;2023-04-24T01:19:29;16.17;;;9.10;;
38937;SDS011;24727;51.974;20.868;2023-04-24T01:21:57;13.85;;;9.30;;
38937;SDS011;24727;51.974;20.868;2023-04-24T01:24:29;13.98;;;9.60;;
38937;SDS011;24727;51.974;20.868;2023-04-24T01:26:58;12.73;;;9.40;;
38937;SDS011;24727;51.974;20.868;2023-04-24T01:29:28;14.73;;;10.00;;
38937;SDS011;24727;51.974;20.868;2023-04-24T01:31:56;14.50;;;9.52;;
38937;SDS011;24727;51.974;20.868;2023-04-24T01:34:23;12.77;;;9.25;;
38937;SDS011;24727;51.974;20.868;2023-04-24T01:36:50;13.82;;;9.23;;
38937;SDS011;24727;51.974;20.868;2023-04-24T01:39:18;12.70;;;8.48;;
38937;SDS011;24727;51.974;20.868;2023-04-24T01:41:46;14.13;;;9.60;;
38937;SDS011;24727;51.974;20.868;2023-04-24T01:44:12;11.60;;;8.35;;
38937;SDS011;24727;51.974;20.868;2023-04-24T01:46:39;13.30;;;8.93;;
38937;SDS011;24727;51.974;20.868;2023-04-24T01:49:05;14.00;;;9.77;;
38937;SDS011;24727;51.974;20.868;2023-04-24T01:51:32;16.85;;;9.15;;
38937;SDS011;24727;51.974;20.868;2023-04-24T01:53:58;14.50;;;9.50;;
38937;SDS011;24727;51.974;20.868;2023-04-24T01:56:24;13.40;;;9.23;;
38937;SDS011;24727;51.974;20.868;2023-04-24T01:58:51;16.08;;;9.80;;
38937;SDS011;24727;51.974;20.868;2023-04-24T02:01:20;12.93;;;9.60;;
38937;SDS011;24727;51.974;20.868;2023-04-24T02:03:46;13.77;;;9.40;;
38937;SDS011;24727;51.974;20.868;2023-04-24T02:06:12;13.02;;;10.07;;
38937;SDS011;24727;51.974;20.868;2023-04-24T02:08:38;9.05;;;7.22;;
38937;SDS011;24727;51.974;20.868;2023-04-24T02:11:04;15.02;;;10.38;;
38937;SDS011;24727;51.974;20.868;2023-04-24T02:13:31;14.98;;;9.77;;
38937;SDS011;24727;51.974;20.868;2023-04-24T02:15:58;16.10;;;10.98;;
38937;SDS011;24727;51.974;20.868;2023-04-24T02:18:24;16.38;;;9.60;;
38937;SDS011;24727;51.974;20.868;2023-04-24T02:20:50;11.20;;;8.73;;
38937;SDS011;24727;51.974;20.868;2023-04-24T02:23:16;12.45;;;9.05;;
38937;SDS011;24727;51.974;20.868;2023-04-24T02:25:44;12.00;;;8.55;;
38937;SDS011;24727;51.974;20.868;2023-04-24T02:28:11;15.75;;;10.52;;
38937;SDS011;24727;51.974;20.868;2023-04-24T02:30:37;15.40;;;10.55;;
38937;SDS011;24727;51.974;20.868;2023-04-24T02:33:03;14.45;;;10.10;;
38937;SDS011;24727;51.974;20.868;2023-04-24T02:38:12;16.70;;;10.15;;
38937;SDS011;24727;51.974;20.868;2023-04-24T02:40:40;12.30;;;9.00;;
38937;SDS011;24727;51.974;20.868;2023-04-24T02:43:06;13.48;;;9.73;;
38937;SDS011;24727;51.974;20.868;2023-04-24T02:45:38;14.73;;;9.80;;
38937;SDS011;24727;51.974;20.868;2023-04-24T02:48:04;12.23;;;8.88;;
38937;SDS011;24727;51.974;20.868;2023-04-24T02:50:30;14.60;;;9.85;;
38937;SDS011;24727;51.974;20.868;2023-04-24T02:52:58;13.68;;;9.68;;
38937;SDS011;24727;51.974;20.868;2023-04-24T02:55:26;12.50;;;9.43;;
38937;SDS011;24727;51.974;20.868;2023-04-24T02:57:53;19.52;;;11.20;;
38937;SDS011;24727;51.974;20.868;2023-04-24T03:00:19;16.60;;;10.35;;
38937;SDS011;24727;51.974;20.868;2023-04-24T03:02:45;14.98;;;9.52;;
38937;SDS011;24727;51.974;20.868;2023-04-24T03:05:11;13.35;;;10.05;;
38937;SDS011;24727;51.974;20.868;2023-04-24T03:07:37;17.13;;;10.60;;
38937;SDS011;24727;51.974;20.868;2023-04-24T03:10:04;15.48;;;9.57;;
38937;SDS011;24727;51.974;20.868;2023-04-24T03:12:32;13.82;;;10.40;;
38937;SDS011;24727;51.974;20.868;2023-04-24T03:14:58;13.60;;;10.38;;
38937;SDS011;24727;51.974;20.868;2023-04-24T03:17:31;20.17;;;11.23;;
38937;SDS011;24727;51.974;20.868;2023-04-24T03:19:58;20.08;;;10.32;;
38937;SDS011;24727;51.974;20.868;2023-04-24T03:22:24;14.40;;;10.43;;
38937;SDS011;24727;51.974;20.868;2023-04-24T03:24:49;15.63;;;10.55;;
38937;SDS011;24727;51.974;20.868;2023-04-24T03:27:15;15.27;;;10.63;;
38937;SDS011;24727;51.974;20.868;2023-04-24T03:29:42;15.93;;;10.55;;
38937;SDS011;24727;51.974;20.868;2023-04-24T03:32:08;14.18;;;9.85;;
38937;SDS011;24727;51.974;20.868;2023-04-24T03:34:34;18.08;;;9.85;;
38937;SDS011;24727;51.974;20.868;2023-04-24T03:37:00;16.67;;;10.65;;
38937;SDS011;24727;51.974;20.868;2023-04-24T03:39:26;11.57;;;8.68;;
38937;SDS011;24727;51.974;20.868;2023-04-24T03:41:58;16.50;;;9.15;;
38937;SDS011;24727;51.974;20.868;2023-04-24T03:44:25;16.52;;;9.82;;
38937;SDS011;24727;51.974;20.868;2023-04-24T03:46:51;16.45;;;10.10;;
38937;SDS011;24727;51.974;20.868;2023-04-24T03:49:17;17.50;;;11.40;;
38937;SDS011;24727;51.974;20.868;2023-04-24T03:51:43;17.40;;;10.80;;
38937;SDS011;24727;51.974;20.868;2023-04-24T03:54:09;12.00;;;9.35;;
38937;SDS011;24727;51.974;20.868;2023-04-24T03:56:34;16.48;;;10.70;;
38937;SDS011;24727;51.974;20.868;2023-04-24T03:59:01;13.20;;;9.88;;
38937;SDS011;24727;51.974;20.868;2023-04-24T04:01:28;13.35;;;9.13;;
38937;SDS011;24727;51.974;20.868;2023-04-24T04:03:55;16.05;;;10.63;;
38937;SDS011;24727;51.974;20.868;2023-04-24T04:06:22;13.32;;;9.70;;
38937;SDS011;24727;51.974;20.868;2023-04-24T04:08:50;31.05;;;11.20;;
38937;SDS011;24727;51.974;20.868;2023-04-24T04:11:16;13.18;;;9.95;;
38937;SDS011;24727;51.974;20.868;2023-04-24T04:13:43;15.18;;;11.02;;
38937;SDS011;24727;51.974;20.868;2023-04-24T04:16:10;15.93;;;10.95;;
38937;SDS011;24727;51.974;20.868;2023-04-24T04:18:37;16.02;;;10.90;;
38937;SDS011;24727;51.974;20.868;2023-04-24T04:21:03;19.73;;;11.80;;
38937;SDS011;24727;51.974;20.868;2023-04-24T04:23:29;16.08;;;10.50;;
38937;SDS011;24727;51.974;20.868;2023-04-24T04:25:55;16.25;;;9.77;;
38937;SDS011;24727;51.974;20.868;2023-04-24T04:28:22;14.90;;;10.25;;
38937;SDS011;24727;51.974;20.868;2023-04-24T04:30:51;15.23;;;10.70;;
38937;SDS011;24727;51.974;20.868;2023-04-24T04:35:52;15.35;;;9.82;;
38937;SDS011;24727;51.974;20.868;2023-04-24T04:38:19;15.15;;;10.00;;
38937;SDS011;24727;51.974;20.868;2023-04-24T04:40:46;17.90;;;10.52;;
38937;SDS011;24727;51.974;20.868;2023-04-24T04:43:12;11.38;;;9.02;;
38937;SDS011;24727;51.974;20.868;2023-04-24T04:45:40;20.67;;;10.35;;
38937;SDS011;24727;51.974;20.868;2023-04-24T04:48:08;14.77;;;9.90;;
38937;SDS011;24727;51.974;20.868;2023-04-24T04:50:35;15.13;;;10.55;;
38937;SDS011;24727;51.974;20.868;2023-04-24T04:53:03;14.70;;;10.10;;
38937;SDS011;24727;51.974;20.868;2023-04-24T04:55:28;13.02;;;9.77;;
38937;SDS011;24727;51.974;20.868;2023-04-24T04:57:57;14.77;;;10.63;;
38937;SDS011;24727;51.974;20.868;2023-04-24T05:00:24;16.83;;;10.75;;
38937;SDS011;24727;51.974;20.868;2023-04-24T05:02:51;17.63;;;10.90;;
38937;SDS011;24727;51.974;20.868;2023-04-24T05:05:17;14.25;;;9.75;;
38937;SDS011;24727;51.974;20.868;2023-04-24T05:07:45;16.60;;;11.00;;
38937;SDS011;24727;51.974;20.868;2023-04-24T05:10:12;13.80;;;10.65;;
38937;SDS011;24727;51.974;20.868;2023-04-24T05:12:39;15.73;;;11.55;;
38937;SDS011;24727;51.974;20.868;2023-04-24T05:15:05;17.95;;;12.23;;
38937;SDS011;24727;51.974;20.868;2023-04-24T05:17:31;19.40;;;11.85;;
38937;SDS011;24727;51.974;20.868;2023-04-24T05:19:57;21.02;;;11.68;;
38937;SDS011;24727;51.974;20.868;2023-04-24T05:22:23;13.45;;;10.10;;
38937;SDS011;24727;51.974;20.868;2023-04-24T05:24:50;18.65;;;11.02;;
38937;SDS011;24727;51.974;20.868;2023-04-24T05:27:18;14.27;;;9.40;;
38937;SDS011;24727;51.974;20.868;2023-04-24T05:29:50;19.70;;;11.00;;
38937;SDS011;24727;51.974;20.868;2023-04-24T05:32:16;16.13;;;10.63;;
38937;SDS011;24727;51.974;20.868;2023-04-24T05:34:43;13.82;;;8.98;;
38937;SDS011;24727;51.974;20.868;2023-04-24T05:37:10;14.07;;;10.35;;
38937;SDS011;24727;51.974;20.868;2023-04-24T05:39:37;13.07;;;10.43;;
38937;SDS011;24727;51.974;20.868;2023-04-24T05:42:09;13.43;;;9.82;;
38937;SDS011;24727;51.974;20.868;2023-04-24T05:44:36;11.85;;;8.18;;
38937;SDS011;24727;51.974;20.868;2023-04-24T05:47:01;13.10;;;10.13;;
38937;SDS011;24727;51.974;20.868;2023-04-24T05:49:27;11.60;;;9.13;;
38937;SDS011;24727;51.974;20.868;2023-04-24T05:51:54;10.82;;;9.13;;
38937;SDS011;24727;51.974;20.868;2023-04-24T05:54:22;11.10;;;9.02;;
38937;SDS011;24727;51.974;20.868;2023-04-24T05:56:49;15.65;;;9.55;;
38937;SDS011;24727;51.974;20.868;2023-04-24T05:59:16;13.70;;;8.90;;
38937;SDS011;24727;51.974;20.868;2023-04-24T06:01:43;15.07;;;9.95;;
38937;SDS011;24727;51.974;20.868;2023-04-24T06:04:09;13.60;;;9.18;;
38937;SDS011;24727;51.974;20.868;2023-04-24T06:06:38;14.85;;;9.30;;
38937;SDS011;24727;51.974;20.868;2023-04-24T06:09:04;14.75;;;9.60;;
38937;SDS011;24727;51.974;20.868;2023-04-24T06:11:31;15.40;;;9.75;;
38937;SDS011;24727;51.974;20.868;2023-04-24T06:13:57;13.32;;;9.38;;
38937;SDS011;24727;51.974;20.868;2023-04-24T06:16:24;13.77;;;9.60;;
38937;SDS011;24727;51.974;20.868;2023-04-24T06:18:50;14.13;;;10.27;;
38937;SDS011;24727;51.974;20.868;2023-04-24T06:21:17;16.75;;;10.23;;
38937;SDS011;24727;51.974;20.868;2023-04-24T06:23:44;13.98;;;9.27;;
38937;SDS011;24727;51.974;20.868;2023-04-24T06:26:24;13.18;;;8.93;;
38937;SDS011;24727;51.974;20.868;2023-04-24T06:28:52;13.75;;;9.40;;
38937;SDS011;24727;51.974;20.868;2023-04-24T06:31:23;16.23;;;9.73;;
38937;SDS011;24727;51.974;20.868;2023-04-24T06:33:51;12.52;;;10.13;;
38937;SDS011;24727;51.974;20.868;2023-04-24T06:36:18;11.75;;;9.05;;
38937;SDS011;24727;51.974;20.868;2023-04-24T06:38:44;11.90;;;9.15;;
38937;SDS011;24727;51.974;20.868;2023-04-24T06:41:12;14.10;;;9.63;;
38937;SDS011;24727;51.974;20.868;2023-04-24T06:43:39;17.42;;;9.88;;
38937;SDS011;24727;51.974;20.868;2023-04-24T06:46:05;11.63;;;9.25;;
38937;SDS011;24727;51.974;20.868;2023-04-24T06:48:31;12.98;;;9.20;;
38937;SDS011;24727;51.974;20.868;2023-04-24T06:50:57;12.30;;;9.07;;
38937;SDS011;24727;51.974;20.868;2023-04-24T06:53:23;10.00;;;8.52;;
38937;SDS011;24727;51.974;20.868;2023-04-24T06:55:50;17.25;;;8.95;;
38937;SDS011;24727;51.974;20.868;2023-04-24T06:58:17;15.48;;;9.15;;
38937;SDS011;24727;51.974;20.868;2023-04-24T07:00:44;10.18;;;8.57;;
38937;SDS011;24727;51.974;20.868;2023-04-24T07:03:12;13.85;;;8.73;;
38937;SDS011;24727;51.974;20.868;2023-04-24T07:05:37;13.07;;;8.82;;
38937;SDS011;24727;51.974;20.868;2023-04-24T07:08:05;10.40;;;8.63;;
38937;SDS011;24727;51.974;20.868;2023-04-24T07:10:33;11.60;;;8.90;;
38937;SDS011;24727;51.974;20.868;2023-04-24T07:13:02;14.13;;;8.50;;
38937;SDS011;24727;51.974;20.868;2023-04-24T07:15:29;12.70;;;8.70;;
38937;SDS011;24727;51.974;20.868;2023-04-24T07:17:57;12.82;;;8.60;;
38937;SDS011;24727;51.974;20.868;2023-04-24T07:20:23;9.93;;;7.93;;
38937;SDS011;24727;51.974;20.868;2023-04-24T07:22:49;11.38;;;8.20;;
38937;SDS011;24727;51.974;20.868;2023-04-24T07:25:15;11.10;;;8.63;;
38937;SDS011;24727;51.974;20.868;2023-04-24T07:27:42;10.80;;;8.40;;
38937;SDS011;24727;51.974;20.868;2023-04-24T07:30:08;17.30;;;8.77;;
38937;SDS011;24727;51.974;20.868;2023-04-24T07:32:35;13.93;;;8.80;;
38937;SDS011;24727;51.974;20.868;2023-04-24T07:35:02;12.50;;;8.68;;
38937;SDS011;24727;51.974;20.868;2023-04-24T07:37:28;15.05;;;8.65;;
38937;SDS011;24727;51.974;20.868;2023-04-24T07:39:54;9.60;;;8.07;;
38937;SDS011;24727;51.974;20.868;2023-04-24T07:42:22;16.02;;;9.18;;
38937;SDS011;24727;51.974;20.868;2023-04-24T07:44:50;13.48;;;8.30;;
38937;SDS011;24727;51.974;20.868;2023-04-24T07:47:17;15.00;;;9.35;;
38937;SDS011;24727;51.974;20.868;2023-04-24T07:49:44;13.55;;;9.43;;
38937;SDS011;24727;51.974;20.868;2023-04-24T07:52:11;12.63;;;9.65;;
38937;SDS011;24727;51.974;20.868;2023-04-24T07:54:38;14.55;;;9.52;;
38937;SDS011;24727;51.974;20.868;2023-04-24T07:57:04;11.70;;;8.98;;
38937;SDS011;24727;51.974;20.868;2023-04-24T07:59:31;10.88;;;8.15;;
38937;SDS011;24727;51.974;20.868;2023-04-24T08:01:57;11.35;;;8.90;;
38937;SDS011;24727;51.974;20.868;2023-04-24T08:04:23;13.00;;;9.25;;
38937;SDS011;24727;51.974;20.868;2023-04-24T08:06:50;25.70;;;9.38;;
38937;SDS011;24727;51.974;20.868;2023-04-24T08:09:16;12.30;;;8.20;;
38937;SDS011;24727;51.974;20.868;2023-04-24T08:11:50;10.68;;;7.82;;
38937;SDS011;24727;51.974;20.868;2023-04-24T08:14:18;10.23;;;8.27;;
38937;SDS011;24727;51.974;20.868;2023-04-24T08:19:13;10.07;;;7.40;;
38937;SDS011;24727;51.974;20.868;2023-04-24T08:21:39;10.98;;;7.50;;
38937;SDS011;24727;51.974;20.868;2023-04-24T08:24:06;11.75;;;7.82;;
38937;SDS011;24727;51.974;20.868;2023-04-24T08:26:33;10.18;;;7.93;;
38937;SDS011;24727;51.974;20.868;2023-04-24T08:29:01;11.52;;;7.78;;
38937;SDS011;24727;51.974;20.868;2023-04-24T08:31:27;12.50;;;7.78;;
38937;SDS011;24727;51.974;20.868;2023-04-24T08:33:59;12.93;;;8.15;;
38937;SDS011;24727;51.974;20.868;2023-04-24T08:36:28;15.65;;;8.40;;
38937;SDS011;24727;51.974;20.868;2023-04-24T08:38:54;11.18;;;9.60;;
38937;SDS011;24727;51.974;20.868;2023-04-24T08:41:20;14.40;;;9.70;;
38937;SDS011;24727;51.974;20.868;2023-04-24T08:43:48;12.05;;;8.80;;
38937;SDS011;24727;51.974;20.868;2023-04-24T08:46:17;11.40;;;9.05;;
38937;SDS011;24727;51.974;20.868;2023-04-24T08:48:52;9.25;;;8.15;;
38937;SDS011;24727;51.974;20.868;2023-04-24T08:51:18;9.75;;;8.30;;
38937;SDS011;24727;51.974;20.868;2023-04-24T08:53:46;9.52;;;7.28;;
38937;SDS011;24727;51.974;20.868;2023-04-24T08:56:12;9.75;;;7.05;;
38937;SDS011;24727;51.974;20.868;2023-04-24T08:58:40;9.00;;;7.35;;
38937;SDS011;24727;51.974;20.868;2023-04-24T09:01:06;9.05;;;6.45;;
38937;SDS011;24727;51.974;20.868;2023-04-24T09:03:33;9.00;;;6.45;;
38937;SDS011;24727;51.974;20.868;2023-04-24T09:06:00;8.60;;;7.15;;
38937;SDS011;24727;51.974;20.868;2023-04-24T09:08:28;9.38;;;6.45;;
38937;SDS011;24727;51.974;20.868;2023-04-24T09:10:56;25.15;;;6.90;;
38937;SDS011;24727;51.974;20.868;2023-04-24T09:13:23;8.00;;;6.53;;
38937;SDS011;24727;51.974;20.868;2023-04-24T09:15:50;10.75;;;7.22;;
38937;SDS011;24727;51.974;20.868;2023-04-24T09:18:17;8.25;;;6.68;;
38937;SDS011;24727;51.974;20.868;2023-04-24T09:21:01;9.57;;;7.18;;
38937;SDS011;24727;51.974;20.868;2023-04-24T09:23:29;8.30;;;7.38;;
38937;SDS011;24727;51.974;20.868;2023-04-24T09:25:57;8.13;;;6.40;;
38937;SDS011;24727;51.974;20.868;2023-04-24T09:28:26;9.13;;;6.65;;
38937;SDS011;24727;51.974;20.868;2023-04-24T09:31:12;9.00;;;5.90;;
38937;SDS011;24727;51.974;20.868;2023-04-24T09:33:53;9.70;;;6.38;;
38937;SDS011;24727;51.974;20.868;2023-04-24T09:36:27;7.95;;;6.00;;
38937;SDS011;24727;51.974;20.868;2023-04-24T09:39:04;7.50;;;6.72;;
38937;SDS011;24727;51.974;20.868;2023-04-24T09:41:33;7.32;;;6.53;;
38937;SDS011;24727;51.974;20.868;2023-04-24T09:44:12;7.25;;;6.55;;
38937;SDS011;24727;51.974;20.868;2023-04-24T09:46:40;7.85;;;6.07;;
38937;SDS011;24727;51.974;20.868;2023-04-24T09:49:08;8.57;;;7.65;;
38937;SDS011;24727;51.974;20.868;2023-04-24T09:51:38;9.05;;;8.15;;
38937;SDS011;24727;51.974;20.868;2023-04-24T09:54:17;9.95;;;7.22;;
38937;SDS011;24727;51.974;20.868;2023-04-24T09:56:47;10.68;;;8.02;;
38937;SDS011;24727;51.974;20.868;2023-04-24T09:59:15;8.63;;;7.72;;
38937;SDS011;24727;51.974;20.868;2023-04-24T10:01:42;7.50;;;6.80;;
38937;SDS011;24727;51.974;20.868;2023-04-24T10:04:19;10.63;;;6.70;;
38937;SDS011;24727;51.974;20.868;2023-04-24T10:06:47;8.25;;;6.57;;
38937;SDS011;24727;51.974;20.868;2023-04-24T10:09:16;7.07;;;6.05;;
38937;SDS011;24727;51.974;20.868;2023-04-24T10:11:44;7.20;;;6.47;;
38937;SDS011;24727;51.974;20.868;2023-04-24T10:14:13;6.93;;;5.90;;
38937;SDS011;24727;51.974;20.868;2023-04-24T10:16:42;7.00;;;6.00;;
38937;SDS011;24727;51.974;20.868;2023-04-24T10:19:09;8.30;;;6.78;;
38937;SDS011;24727;51.974;20.868;2023-04-24T10:21:39;10.55;;;6.20;;
38937;SDS011;24727;51.974;20.868;2023-04-24T10:24:12;10.27;;;6.30;;
38937;SDS011;24727;51.974;20.868;2023-04-24T10:26:54;6.60;;;5.95;;
38937;SDS011;24727;51.974;20.868;2023-04-24T10:29:22;8.77;;;5.80;;
38937;SDS011;24727;51.974;20.868;2023-04-24T10:31:51;17.33;;;6.13;;
38937;SDS011;24727;51.974;20.868;2023-04-24T10:34:17;6.65;;;5.60;;
38937;SDS011;24727;51.974;20.868;2023-04-24T10:36:48;6.53;;;5.90;;
38937;SDS011;24727;51.974;20.868;2023-04-24T10:41:44;9.18;;;6.68;;
38937;SDS011;24727;51.974;20.868;2023-04-24T10:44:22;8.82;;;5.55;;
38937;SDS011;24727;51.974;20.868;2023-04-24T10:46:52;10.98;;;5.72;;
38937;SDS011;24727;51.974;20.868;2023-04-24T10:49:30;20.02;;;6.55;;
38937;SDS011;24727;51.974;20.868;2023-04-24T10:52:01;7.97;;;5.97;;
38937;SDS011;24727;51.974;20.868;2023-04-24T10:54:40;7.40;;;5.72;;
38937;SDS011;24727;51.974;20.868;2023-04-24T10:59:48;7.15;;;6.25;;
38937;SDS011;24727;51.974;20.868;2023-04-24T11:02:16;6.85;;;5.50;;
38937;SDS011;24727;51.974;20.868;2023-04-24T11:04:43;9.52;;;6.28;;
38937;SDS011;24727;51.974;20.868;2023-04-24T11:07:10;9.15;;;6.38;;
38937;SDS011;24727;51.974;20.868;2023-04-24T11:09:37;9.35;;;5.88;;
38937;SDS011;24727;51.974;20.868;2023-04-24T11:12:11;5.28;;;4.78;;
38937;SDS011;24727;51.974;20.868;2023-04-24T11:17:31;7.78;;;4.90;;
38937;SDS011;24727;51.974;20.868;2023-04-24T11:20:05;4.95;;;4.45;;
38937;SDS011;24727;51.974;20.868;2023-04-24T11:22:37;6.60;;;4.55;;
38937;SDS011;24727;51.974;20.868;2023-04-24T11:25:08;5.70;;;5.07;;
38937;SDS011;24727;51.974;20.868;2023-04-24T11:27:43;6.45;;;4.75;;
38937;SDS011;24727;51.974;20.868;2023-04-24T11:30:12;5.60;;;4.40;;
38937;SDS011;24727;51.974;20.868;2023-04-24T11:32:43;6.68;;;4.40;;
38937;SDS011;24727;51.974;20.868;2023-04-24T11:35:17;4.88;;;4.45;;
38937;SDS011;24727;51.974;20.868;2023-04-24T11:37:48;5.28;;;4.75;;
38937;SDS011;24727;51.974;20.868;2023-04-24T11:40:16;5.75;;;5.13;;
38937;SDS011;24727;51.974;20.868;2023-04-24T11:42:49;7.30;;;5.28;;
38937;SDS011;24727;51.974;20.868;2023-04-24T11:45:18;6.85;;;5.47;;
38937;SDS011;24727;51.974;20.868;2023-04-24T11:47:53;7.88;;;5.43;;
38937;SDS011;24727;51.974;20.868;2023-04-24T11:50:21;7.53;;;5.10;;
38937;SDS011;24727;51.974;20.868;2023-04-24T11:52:50;7.32;;;5.30;;
38937;SDS011;24727;51.974;20.868;2023-04-24T11:57:47;10.40;;;5.20;;
38937;SDS011;24727;51.974;20.868;2023-04-24T12:00:18;8.13;;;5.20;;
38937;SDS011;24727;51.974;20.868;2023-04-24T12:02:45;11.68;;;5.18;;
38937;SDS011;24727;51.974;20.868;2023-04-24T12:05:25;8.13;;;5.50;;
38937;SDS011;24727;51.974;20.868;2023-04-24T12:07:53;8.65;;;5.55;;
38937;SDS011;24727;51.974;20.868;2023-04-24T12:10:23;6.65;;;5.00;;
38937;SDS011;24727;51.974;20.868;2023-04-24T12:12:51;6.72;;;3.83;;
38937;SDS011;24727;51.974;20.868;2023-04-24T12:15:19;4.30;;;3.42;;
38937;SDS011;24727;51.974;20.868;2023-04-24T12:17:54;7.57;;;3.75;;
38937;SDS011;24727;51.974;20.868;2023-04-24T12:20:27;6.03;;;3.80;;
38937;SDS011;24727;51.974;20.868;2023-04-24T12:22:55;7.60;;;3.75;;
38937;SDS011;24727;51.974;20.868;2023-04-24T12:25:24;5.43;;;3.97;;
38937;SDS011;24727;51.974;20.868;2023-04-24T12:27:55;5.07;;;3.85;;
38937;SDS011;24727;51.974;20.868;2023-04-24T12:30:46;6.47;;;3.80;;
38937;SDS011;24727;51.974;20.868;2023-04-24T12:33:20;7.85;;;3.80;;
38937;SDS011;24727;51.974;20.868;2023-04-24T12:35:53;4.13;;;3.42;;
38937;SDS011;24727;51.974;20.868;2023-04-24T12:38:25;4.93;;;4.32;;
38937;SDS011;24727;51.974;20.868;2023-04-24T12:41:02;4.53;;;4.13;;
38937;SDS011;24727;51.974;20.868;2023-04-24T12:43:34;8.57;;;4.82;;
38937;SDS011;24727;51.974;20.868;2023-04-24T12:46:01;7.10;;;4.72;;
38937;SDS011;24727;51.974;20.868;2023-04-24T12:48:34;5.18;;;4.57;;
38937;SDS011;24727;51.974;20.868;2023-04-24T12:51:00;5.65;;;5.10;;
38937;SDS011;24727;51.974;20.868;2023-04-24T12:53:27;5.43;;;4.40;;
38937;SDS011;24727;51.974;20.868;2023-04-24T12:55:55;6.55;;;4.53;;
38937;SDS011;24727;51.974;20.868;2023-04-24T12:58:21;6.97;;;4.40;;
38937;SDS011;24727;51.974;20.868;2023-04-24T13:00:47;6.28;;;4.07;;
38937;SDS011;24727;51.974;20.868;2023-04-24T13:03:14;5.43;;;4.45;;
38937;SDS011;24727;51.974;20.868;2023-04-24T13:05:42;6.45;;;4.78;;
38937;SDS011;24727;51.974;20.868;2023-04-24T13:08:09;6.88;;;4.45;;
38937;SDS011;24727;51.974;20.868;2023-04-24T13:10:35;7.18;;;4.38;;
38937;SDS011;24727;51.974;20.868;2023-04-24T13:13:02;7.10;;;4.28;;
38937;SDS011;24727;51.974;20.868;2023-04-24T13:15:29;6.82;;;4.20;;
38937;SDS011;24727;51.974;20.868;2023-04-24T13:17:54;5.30;;;4.22;;
38937;SDS011;24727;51.974;20.868;2023-04-24T13:20:20;7.03;;;4.20;;
38937;SDS011;24727;51.974;20.868;2023-04-24T13:22:47;5.53;;;4.47;;
38937;SDS011;24727;51.974;20.868;2023-04-24T13:25:15;5.00;;;4.28;;
38937;SDS011;24727;51.974;20.868;2023-04-24T13:27:42;6.28;;;4.15;;
38937;SDS011;24727;51.974;20.868;2023-04-24T13:30:08;4.43;;;4.03;;
38937;SDS011;24727;51.974;20.868;2023-04-24T13:32:36;6.38;;;4.50;;
38937;SDS011;24727;51.974;20.868;2023-04-24T13:35:02;4.65;;;3.42;;
38937;SDS011;24727;51.974;20.868;2023-04-24T13:37:28;4.78;;;4.07;;
38937;SDS011;24727;51.974;20.868;2023-04-24T13:39:54;5.95;;;3.83;;
38937;SDS011;24727;51.974;20.868;2023-04-24T13:42:20;7.70;;;3.80;;
38937;SDS011;24727;51.974;20.868;2023-04-24T13:44:47;3.85;;;3.33;;
38937;SDS011;24727;51.974;20.868;2023-04-24T13:47:13;4.10;;;3.45;;
38937;SDS011;24727;51.974;20.868;2023-04-24T13:49:40;3.88;;;3.40;;
38937;SDS011;24727;51.974;20.868;2023-04-24T13:52:06;4.45;;;3.22;;
38937;SDS011;24727;51.974;20.868;2023-04-24T13:54:39;6.85;;;3.78;;
38937;SDS011;24727;51.974;20.868;2023-04-24T13:57:07;5.38;;;3.92;;
38937;SDS011;24727;51.974;20.868;2023-04-24T13:59:34;5.63;;;3.58;;
38937;SDS011;24727;51.974;20.868;2023-04-24T14:02:00;6.63;;;4.10;;
38937;SDS011;24727;51.974;20.868;2023-04-24T14:04:26;5.55;;;3.92;;
38937;SDS011;24727;51.974;20.868;2023-04-24T14:06:58;5.20;;;3.75;;
38937;SDS011;24727;51.974;20.868;2023-04-24T14:09:24;5.80;;;4.30;;
38937;SDS011;24727;51.974;20.868;2023-04-24T14:11:51;4.88;;;3.92;;
38937;SDS011;24727;51.974;20.868;2023-04-24T14:14:17;4.63;;;3.80;;
38937;SDS011;24727;51.974;20.868;2023-04-24T14:16:45;7.55;;;3.60;;
38937;SDS011;24727;51.974;20.868;2023-04-24T14:19:17;5.93;;;3.50;;
38937;SDS011;24727;51.974;20.868;2023-04-24T14:21:43;4.88;;;3.30;;
38937;SDS011;24727;51.974;20.868;2023-04-24T14:24:10;6.47;;;3.75;;
38937;SDS011;24727;51.974;20.868;2023-04-24T14:26:38;4.72;;;3.40;;
38937;SDS011;24727;51.974;20.868;2023-04-24T14:29:04;4.68;;;3.55;;
38937;SDS011;24727;51.974;20.868;2023-04-24T14:31:31;6.40;;;3.70;;
38937;SDS011;24727;51.974;20.868;2023-04-24T14:34:12;4.38;;;3.88;;
38937;SDS011;24727;51.974;20.868;2023-04-24T14:36:39;10.02;;;4.13;;
38937;SDS011;24727;51.974;20.868;2023-04-24T14:39:05;4.82;;;3.45;;
38937;SDS011;24727;51.974;20.868;2023-04-24T14:41:32;5.72;;;3.80;;
38937;SDS011;24727;51.974;20.868;2023-04-24T14:44:03;6.22;;;4.18;;
38937;SDS011;24727;51.974;20.868;2023-04-24T14:46:30;8.07;;;3.58;;
38937;SDS011;24727;51.974;20.868;2023-04-24T14:48:56;5.80;;;3.47;;